Latest Weather Observations for Cleve Airport

IDS60801

Issued at 9:21 am CDT Thursday 23 January 2020 (issued every 10 minutes, with the page automatically refreshed every 10 minutes)

About weather observations | Map of weather stations | Latest weather observations for SA | Other Formats
Station Details ID: 018116 Name: CLEVE AERODROME Lat: -33.71 Lon: 136.50 Height: 175.0 m
Data from the previous 72 hours. | See also: Recent months at Cleve Airport
Date/Time
CDT
Temp
°C
App
Temp
°C
Dew
Point
°C
Rel
Hum
%
Delta-T
°C
Wind Press
QNH
hPa
Press
MSL
hPa
Rain since
9am
mm
Dir  Spd
km/h
Gust
km/h
Spd
kts
Gust
kts
23/09:00am 16.4 10.3 11.6 73 2.6 WSW 35 46 19 25 1004.3 1003.5 1.0
23/08:30am 15.8 11.5 13.3 85 1.4 W 28 41 15 22 1004.1 1003.3 1.0
23/08:00am 14.9 10.9 13.1 89 1.0 W 26 39 14 21 1003.5 1002.7 1.0
23/07:30am 14.5 10.6 13.2 92 0.7 W 26 35 14 19 1003.0 1002.2 1.0
23/07:00am 14.3 10.7 12.9 91 0.8 W 24 33 13 18 1002.5 1001.7 1.0
23/06:30am 14.6 9.4 12.8 89 1.0 WNW 32 52 17 28 1002.0 1001.2 1.0
23/06:14am 14.7 9.5 12.7 88 1.1 WNW 32 50 17 27 1001.6 1000.8 1.0
23/06:00am 14.6 10.5 12.6 88 1.1 WNW 26 39 14 21 1001.5 1000.7 1.0
23/05:30am 14.1 9.7 12.8 92 0.7 WNW 28 41 15 22 1001.2 1000.4 0.8
23/05:00am 14.8 10.2 12.3 85 1.4 WNW 28 37 15 20 1001.1 1000.3 0.0
23/04:30am 14.8 9.7 11.8 82 1.6 WNW 30 43 16 23 1001.1 1000.3 0.0
23/04:00am 14.8 9.4 12.3 85 1.4 WNW 32 50 17 27 1001.1 1000.3 0.0
23/03:57am 15.3 10.3 12.2 82 1.7 WNW 30 50 16 27 1001.1 1000.3 0.0
23/03:30am 15.4 10.3 12.0 80 1.9 WNW 30 43 16 23 1001.2 1000.4 0.0
23/03:00am 15.5 10.0 11.9 79 2.0 WNW 32 44 17 24 1001.2 1000.4 0.0
23/02:35am 15.6 10.0 12.0 79 2.0 WNW 33 54 18 29 1001.3 1000.5 0.0
23/02:30am 15.7 10.2 11.9 78 2.1 WNW 32 44 17 24 1001.3 1000.5 0.0
23/02:00am 16.4 11.1 11.1 71 2.9 WNW 30 44 16 24 1001.6 1000.8 0.0
23/01:30am 16.6 11.9 10.7 68 3.2 WNW 26 37 14 20 1001.7 1000.9 0.0
23/01:00am 16.5 11.5 11.0 70 3.0 WNW 28 44 15 24 1001.9 1001.1 0.0
23/12:30am 16.6 12.0 10.9 69 3.1 WNW 26 43 14 23 1002.0 1001.2 0.0
23/12:06am 16.9 11.0 10.5 66 3.4 WNW 32 56 17 30 1002.2 1001.4 0.0
23/12:00am 17.3 11.8 10.4 64 3.7 W 30 43 16 23 1002.4 1001.6 0.0
 
Date/Time
CDT
Temp
°C
App
Temp
°C
Dew
Point
°C
Rel
Hum
%
Delta-T
°C
Wind Press
QNH
hPa
Press
MSL
hPa
Rain since
9am
mm
Dir  Spd
km/h
Gust
km/h
Spd
kts
Gust
kts
22/11:30pm 17.4 12.9 10.1 62 3.9 WNW 24 32 13 17 1002.1 1001.3 0.0
22/11:00pm 17.4 13.2 9.8 61 4.0 W 22 32 12 17 1002.2 1001.4 0.0
22/10:30pm 17.3 12.6 9.2 59 4.3 W 24 32 13 17 1002.4 1001.6 0.0
22/10:00pm 17.5 11.9 8.6 56 4.6 W 28 44 15 24 1002.1 1001.3 0.0
22/09:30pm 17.8 12.1 8.4 54 4.9 W 28 39 15 21 1002.1 1001.3 0.0
22/09:00pm 18.3 12.2 8.3 52 5.2 W 30 44 16 24 1001.8 1001.0 0.0
22/08:30pm 18.9 12.7 8.0 49 5.7 W 30 43 16 23 1001.7 1000.9 0.0
22/08:06pm 19.2 12.6 7.6 47 6.0 W 32 50 17 27 1001.5 1000.7 0.0
22/08:00pm 19.4 12.6 7.8 47 6.0 W 33 48 18 26 1001.5 1000.7 0.0
22/07:30pm 19.9 11.9 7.3 44 6.5 W 39 52 21 28 1001.2 1000.4 0.0
22/07:00pm 20.9 13.0 6.4 39 7.4 W 37 52 20 28 1001.2 1000.4 0.0
22/06:30pm 21.5 13.3 5.0 34 8.2 W 37 50 20 27 1001.0 1000.2 0.0
22/06:02pm 22.3 15.7 6.1 35 8.3 W 30 54 16 29 1000.5 999.7 0.0
22/06:00pm 22.9 16.2 5.8 33 8.8 W 30 46 16 25 1000.5 999.7 0.0
22/05:30pm 23.0 15.3 7.1 36 8.3 W 37 57 20 31 1000.6 999.8 0.0
22/05:24pm 23.1 15.8 7.2 36 8.3 W 35 57 19 31 1000.7 999.9 0.0
22/05:00pm 22.4 16.1 7.4 38 7.8 WSW 30 46 16 25 1000.7 999.9 0.0
22/04:33pm 23.2 16.5 7.3 36 8.3 W 32 50 17 27 1000.9 1000.1 0.0
22/04:30pm 23.0 16.1 7.1 36 8.3 W 33 50 18 27 1000.9 1000.1 0.0
22/04:00pm 23.7 16.9 7.8 36 8.4 WSW 33 54 18 29 1001.2 1000.4 0.0
22/03:39pm 23.9 16.6 8.7 38 8.2 WSW 37 57 20 31 1001.1 1000.3 0.0
22/03:30pm 24.5 17.7 9.3 38 8.4 WSW 35 48 19 26 1001.2 1000.4 0.0
22/03:00pm 24.7 19.2 10.6 41 7.9 WSW 30 44 16 24 1001.3 1000.5 0.0
22/02:30pm 23.6 17.0 9.9 42 7.6 WSW 35 46 19 25 1001.8 1001.0 0.0
22/02:00pm 24.7 18.0 9.8 39 8.2 WSW 35 54 19 29 1001.8 1001.0 0.0
22/01:30pm 23.2 16.5 9.6 42 7.5 WSW 35 56 19 30 1002.3 1001.5 0.0
22/01:00pm 23.4 16.6 9.4 41 7.6 W 35 54 19 29 1002.3 1001.5 0.0
22/12:30pm 23.2 16.3 8.9 40 7.8 W 35 48 19 26 1002.1 1001.3 0.0
22/12:00pm 23.3 16.2 11.0 46 6.9 WSW 39 52 21 28 1002.6 1001.8 0.0
22/11:31am 22.7 17.7 13.5 56 5.4 WSW 32 52 17 28 1002.8 1002.0 0.0
22/11:30am 22.9 18.0 13.7 56 5.4 WSW 32 46 17 25 1002.8 1002.0 0.0
22/11:00am 23.6 18.8 14.6 57 5.4 WSW 33 43 18 23 1002.5 1001.7 0.0
22/10:30am 23.0 18.8 14.6 59 5.0 W 30 44 16 24 1002.2 1001.4 0.0
22/10:00am 21.9 16.7 13.3 58 5.0 WSW 33 44 18 24 1001.9 1001.1 0.0
22/09:30am 22.0 18.0 13.1 57 5.2 W 26 37 14 20 1001.6 1000.8 0.0
22/09:00am 20.4 14.9 12.6 61 4.5 W 33 44 18 24 1002.0 1001.2 0.0
22/08:30am 21.4 17.2 9.6 47 6.4 WNW 22 32 12 17 1001.2 1000.4 0.0
22/08:00am 19.7 16.3 10.7 56 4.9 WNW 19 26 10 14 1001.3 1000.5 0.0
22/07:30am 20.4 14.5 7.4 43 6.8 W 28 37 15 20 1001.2 1000.4 0.0
22/07:00am 21.6 14.6 5.9 36 7.9 W 32 48 17 26 1001.0 1000.2 0.0
22/06:56am 22.3 16.4 5.7 34 8.4 W 26 48 14 26 1000.8 1000.0 0.0
22/06:30am 23.7 19.1 6.5 33 9.0 NW 20 28 11 15 1000.4 999.6 0.0
22/06:00am 23.8 19.4 6.6 33 9.0 NW 19 26 10 14 1000.0 999.3 0.0
22/05:30am 22.5 18.6 7.1 37 8.1 NW 17 26 9 14 1000.2 999.4 0.0
22/05:00am 22.5 16.8 6.7 36 8.2 N 26 35 14 19 999.3 998.5 0.0
22/04:30am 22.7 17.4 6.9 36 8.3 NNW 24 30 13 16 999.5 998.7 0.0
22/04:00am 23.3 18.7 6.6 34 8.7 N 20 24 11 13 1000.3 999.5 0.0
22/03:30am 22.9 18.9 6.6 35 8.5 NNW 17 20 9 11 1000.8 1000.0 0.0
22/03:00am 22.9 19.4 7.1 36 8.3 NNW 15 19 8 10 1001.2 1000.4 0.0
22/02:30am 22.4 18.9 7.4 38 7.9 NNW 15 19 8 10 1001.7 1000.9 0.0
22/02:00am 22.0 19.4 7.8 40 7.5 NW 11 15 6 8 1002.1 1001.3 0.0
22/01:30am 21.6 19.2 8.5 43 7.0 NNW 11 13 6 7 1002.3 1001.5 0.0
22/01:00am 20.8 18.5 9.1 47 6.3 NW 11 13 6 7 1002.8 1002.0 0.0
22/12:30am 20.1 18.3 9.4 50 5.8 NW 9 13 5 7 1003.2 1002.4 0.0
22/12:00am 20.3 18.5 9.5 50 5.8 NNW 9 11 5 6 1003.4 1002.6 0.0
 
Date/Time
CDT
Temp
°C
App
Temp
°C
Dew
Point
°C
Rel
Hum
%
Delta-T
°C
Wind Press
QNH
hPa
Press
MSL
hPa
Rain since
9am
mm
Dir  Spd
km/h
Gust
km/h
Spd
kts
Gust
kts
21/11:30pm 20.7 19.6 9.9 50 5.9 N 6 7 3 4 1003.9 1003.1 0.0
21/11:00pm 21.8 20.6 10.3 48 6.3 W 7 9 4 5 1003.9 1003.1 0.0
21/10:30pm 22.3 20.7 10.1 46 6.7 WNW 9 11 5 6 1004.2 1003.4 0.0
21/10:00pm 22.5 20.5 10.3 46 6.7 W 11 13 6 7 1004.4 1003.6 0.0
21/09:30pm 23.6 20.8 8.5 38 8.1 WSW 13 17 7 9 1004.2 1003.4 0.0
21/09:00pm 25.2 22.9 7.3 32 9.5 SW 9 13 5 7 1003.8 1003.0 0.0
21/08:30pm 26.9 23.2 7.9 30 10.3 SSW 17 20 9 11 1003.5 1002.7 0.0
21/08:00pm 30.1 25.1 4.7 20 13.3 WNW 20 30 11 16 1003.4 1002.6 0.0
21/07:30pm 30.6 25.7 5.1 20 13.5 NW 20 32 11 17 1003.2 1002.4 0.0
21/07:00pm 30.9 24.9 5.3 20 13.6 NW 26 41 14 22 1003.4 1002.6 0.0
21/06:30pm 31.2 26.0 5.6 20 13.7 WNW 22 33 12 18 1003.6 1002.8 0.0
21/06:00pm 31.2 25.8 6.3 21 13.5 W 24 37 13 20 1003.8 1003.0 0.0
21/05:30pm 31.1 24.6 4.8 19 13.9 WNW 28 43 15 23 1004.3 1003.5 0.0
21/05:00pm 31.2 25.3 5.6 20 13.6 WNW 26 37 14 20 1004.6 1003.8 0.0
21/04:30pm 30.9 26.2 6.0 21 13.4 WNW 20 35 11 19 1005.1 1004.4 0.0
21/04:00pm 29.9 25.2 5.9 22 12.8 W 20 32 11 17 1005.6 1004.9 0.0
21/03:30pm 30.0 24.7 6.6 23 12.6 WNW 24 41 13 22 1006.3 1005.5 0.0
21/03:02pm 29.1 23.1 7.1 25 11.9 WNW 28 46 15 25 1006.9 1006.1 0.0
21/03:00pm 29.4 23.2 6.1 23 12.4 WNW 28 39 15 21 1007.0 1006.2 0.0
21/02:30pm 29.1 24.4 7.7 26 11.7 W 22 46 12 25 1007.5 1006.7 0.0
21/02:02pm 28.5 22.5 7.1 26 11.5 W 28 50 15 27 1007.9 1007.1 0.0
21/02:00pm 28.3 22.8 7.5 27 11.3 W 26 39 14 21 1008.0 1007.2 0.0
21/01:30pm 28.0 22.9 7.8 28 11.0 WNW 24 37 13 20 1008.5 1007.7 0.0
21/01:00pm 26.8 22.5 7.8 30 10.3 WNW 20 32 11 17 1009.0 1008.2 0.0
21/12:30pm 25.5 21.5 8.1 33 9.4 W 19 32 10 17 1009.7 1008.9 0.0
21/12:00pm 24.9 21.1 7.5 33 9.3 WNW 17 24 9 13 1010.4 1009.7 0.0
21/11:30am 22.7 18.7 8.4 40 7.6 N 19 30 10 16 1010.6 1009.9 0.0
21/11:00am 22.8 20.0 9.9 44 7.1 N 15 33 8 18 1010.8 1010.1 0.0
21/10:30am 21.1 17.7 9.0 46 6.5 N 17 22 9 12 1011.1 1010.4 0.0
21/10:00am 19.6 17.1 11.1 58 4.7 NNW 15 20 8 11 1011.6 1010.9 0.0
21/09:30am 18.3 15.2 11.6 65 3.7 N 19 24 10 13 1011.6 1010.9 0.0
21/09:00am 17.9 14.7 11.9 68 3.3 NNE 20 26 11 14 1011.7 1011.0 0.0
21/08:30am 17.0 14.0 11.9 72 2.8 NNE 19 24 10 13 1011.8 1011.1 0.0
21/08:00am 16.0 14.0 12.6 80 1.9 NNE 15 19 8 10 1011.9 1011.2 0.0
21/07:30am 14.4 12.7 12.3 87 1.2 NNE 13 17 7 9 1011.7 1011.0 0.0
21/07:00am 12.5 10.0 11.2 92 0.7 NNE 15 17 8 9 1011.6 1010.9 0.0
21/06:30am 12.3 9.8 10.9 91 0.7 N 15 17 8 9 1011.8 1011.1 0.0
21/06:00am 12.4 10.2 10.8 90 0.8 N 13 15 7 8 1011.7 1011.0 0.0
21/05:30am 11.2 9.1 9.8 91 0.7 N 11 13 6 7 1011.8 1011.1 0.0
21/05:00am 11.3 9.2 9.6 89 0.9 NW 11 11 6 6 1012.1 1011.3 0.0
21/04:30am 11.6 9.8 9.5 87 1.1 WNW 9 11 5 6 1011.8 1011.1 0.0
21/04:00am 12.7 11.8 10.8 88 1.0 W 6 9 3 5 1012.2 1011.4 0.0
21/03:30am 12.5 10.6 10.4 87 1.1 W 11 13 6 7 1012.3 1011.5 0.0
21/03:00am 11.9 10.5 9.6 86 1.2 W 7 9 4 5 1012.4 1011.6 0.0
21/02:30am 12.1 12.1 9.8 86 1.2 CALM 0 0 0 0 1012.5 1011.7 0.0
21/02:00am 12.4 12.5 10.0 85 1.2 CALM 0 0 0 0 1012.8 1012.0 0.0
21/01:30am 12.9 13.1 10.4 85 1.3 CALM 0 0 0 0 1013.1 1012.3 0.0
21/01:00am 13.4 12.3 10.6 83 1.5 N 7 7 4 4 1013.6 1012.8 0.0
21/12:30am 13.1 11.8 10.1 82 1.6 NNE 7 7 4 4 1013.8 1013.0 0.0
21/12:00am 13.5 12.3 10.3 81 1.7 NNE 7 9 4 5 1013.8 1013.0 0.0
 
Date/Time
CDT
Temp
°C
App
Temp
°C
Dew
Point
°C
Rel
Hum
%
Delta-T
°C
Wind Press
QNH
hPa
Press
MSL
hPa
Rain since
9am
mm
Dir  Spd
km/h
Gust
km/h
Spd
kts
Gust
kts
20/11:30pm 13.5 12.4 10.1 80 1.8 NE 6 7 3 4 1014.0 1013.2 0.0
20/11:00pm 14.3 13.3 10.3 77 2.1 ESE 6 7 3 4 1014.3 1013.5 0.0
20/10:30pm 14.5 14.3 10.5 77 2.1 ENE 2 6 1 3 1014.4 1013.6 0.0
20/10:00pm 14.5 13.2 10.1 75 2.3 SSE 7 9 4 5 1014.2 1013.4 0.0
20/09:30pm 15.4 13.1 10.6 73 2.6 SSE 13 19 7 10 1013.9 1013.1 0.0
20/09:00pm 16.2 13.0 11.2 72 2.7 SSE 19 22 10 12 1013.8 1013.0 0.0
20/08:30pm 16.8 13.0 11.1 69 3.1 SSE 22 28 12 15 1013.9 1013.1 0.0
20/08:00pm 17.3 13.0 10.9 66 3.5 SSE 24 32 13 17 1013.5 1012.7 0.0
20/07:30pm 17.9 13.6 10.8 63 3.9 SSE 24 32 13 17 1013.3 1012.5 0.0
20/07:00pm 18.6 13.9 10.7 60 4.3 SSE 26 33 14 18 1013.0 1012.2 0.0
20/06:30pm 19.1 14.4 10.6 58 4.6 S 26 37 14 20 1012.8 1012.0 0.0
20/06:00pm 19.9 15.6 10.6 55 5.1 S 24 35 13 19 1012.7 1011.9 0.0
20/05:30pm 20.4 16.2 11.1 55 5.1 S 24 32 13 17 1012.8 1012.0 0.0
20/05:00pm 20.3 15.1 10.1 52 5.5 SSE 28 39 15 21 1012.6 1011.8 0.0
20/04:30pm 20.6 15.4 10.1 51 5.7 SSE 28 37 15 20 1012.7 1011.9 0.0
20/04:00pm 21.1 16.3 10.3 50 5.9 S 26 39 14 21 1012.6 1011.8 0.0
20/03:30pm 20.2 14.8 9.5 50 5.7 SSE 28 41 15 22 1012.9 1012.1 0.0
20/03:00pm 20.7 15.4 9.9 50 5.9 SSE 28 39 15 21 1013.1 1012.3 0.0
20/02:30pm 20.7 15.7 10.8 53 5.5 S 28 41 15 22 1013.6 1012.8 0.0
20/02:00pm 20.4 14.9 10.5 53 5.4 SSE 30 35 16 19 1013.7 1012.9 0.0
20/01:30pm 20.0 14.2 10.7 55 5.1 SSE 32 44 17 24 1013.8 1013.0 0.0
20/01:00pm 19.8 14.3 10.5 55 5.1 S 30 41 16 22 1013.9 1013.1 0.0
20/12:30pm 19.2 13.8 11.0 59 4.5 SSE 30 39 16 21 1014.0 1013.2 0.0
20/12:00pm 19.3 13.6 11.3 60 4.4 S 32 41 17 22 1013.9 1013.1 0.0
20/11:30am 18.9 13.6 11.2 61 4.2 S 30 39 16 21 1013.9 1013.1 0.0
20/11:00am 18.1 12.6 10.7 62 4.0 S 30 41 16 22 1013.8 1013.0 0.0
20/10:30am 18.3 13.0 11.1 63 3.9 S 30 41 16 22 1013.5 1012.7 0.0
20/10:00am 18.0 12.3 11.1 64 3.8 S 32 37 17 20 1013.5 1012.7 0.0
20/09:30am 17.6 13.3 10.9 65 3.6 SSW 24 33 13 18 1013.5 1012.7 0.0

Other formats

Comma delimited format used in spreadsheet applications
http://www.bom.gov.au/fwo/IDS60801/IDS60801.94662.axf

JavaScript Object Notation format (JSON) in row-major order
http://www.bom.gov.au/fwo/IDS60801/IDS60801.94662.json

Data quality

Most of these data are generated automatically and are frequently updated. Quality checks on data are not normally performed. It is possible for incorrect values to appear. Refer to information at About Latest Weather Observations and please check the disclaimer before using these data.